Time;durP1;ratioP1;P1;durP2;ratioP2;P2;SDS_P1;SDS_P2;PMS_P1;PMS_P2;Temp;Humidity;BMP_temperature;BMP_pressure;BME280_temperature;BME280_humidity;BME280_pressure;Samples;Min_cycle;Max_cycle;Signal;HPM_P1;HPM_P2
2022/08/07 00:00:33;;;;;;;16.05;11.63;;;;;;;;;;5033742;28;20026;-65
2022/08/07 00:02:59;;;;;;;16.88;11.02;;;;;;;;;;5034953;28;20064;-64
2022/08/07 00:05:26;;;;;;;16.38;11.43;;;;;;;;;;5033504;28;20060;-66
2022/08/07 00:07:53;;;;;;;17.80;11.25;;;;;;;;;;5034255;28;20532;-64
2022/08/07 00:10:20;;;;;;;17.08;11.23;;;;;;;;;;5033672;28;20032;-64
2022/08/07 00:12:46;;;;;;;16.90;11.10;;;;;;;;;;5034917;28;20049;-63
2022/08/07 00:15:12;;;;;;;18.63;11.70;;;;;;;;;;5033345;28;20496;-64
2022/08/07 00:17:38;;;;;;;18.00;11.07;;;;;;;;;;5034090;28;20121;-63
2022/08/07 00:20:05;;;;;;;17.23;11.07;;;;;;;;;;5034834;28;20441;-64
2022/08/07 00:22:31;;;;;;;16.13;10.98;;;;;;;;;;5034670;28;20022;-64
2022/08/07 00:24:57;;;;;;;17.05;11.07;;;;;;;;;;5034514;28;20040;-64
2022/08/07 00:27:23;;;;;;;17.23;11.10;;;;;;;;;;5033774;28;20036;-63
2022/08/07 00:29:50;;;;;;;16.48;11.43;;;;;;;;;;5034363;28;20021;-64
2022/08/07 00:32:16;;;;;;;15.90;11.15;;;;;;;;;;5034507;28;20026;-64
2022/08/07 00:34:42;;;;;;;16.17;11.38;;;;;;;;;;5034482;28;20029;-65
2022/08/07 00:37:08;;;;;;;15.90;10.45;;;;;;;;;;5034180;28;20036;-62
2022/08/07 00:39:34;;;;;;;16.27;10.70;;;;;;;;;;5033201;28;20112;-64
2022/08/07 00:42:01;;;;;;;15.88;10.60;;;;;;;;;;5033922;28;20024;-64
2022/08/07 00:44:28;;;;;;;16.20;11.07;;;;;;;;;;5034296;28;20030;-64
2022/08/07 00:46:54;;;;;;;16.27;11.15;;;;;;;;;;5034268;28;20067;-64
2022/08/07 00:49:20;;;;;;;15.77;10.65;;;;;;;;;;5033598;28;20021;-63
2022/08/07 00:51:46;;;;;;;17.90;11.77;;;;;;;;;;5032775;28;20136;-64
2022/08/07 00:54:14;;;;;;;17.95;11.45;;;;;;;;;;5032779;28;20512;-64
2022/08/07 00:56:40;;;;;;;16.42;10.90;;;;;;;;;;5034421;28;20647;-64
2022/08/07 00:59:06;;;;;;;15.75;10.73;;;;;;;;;;5031963;28;20026;-64
2022/08/07 01:01:32;;;;;;;15.70;10.60;;;;;;;;;;5033945;28;20022;-63
2022/08/07 01:03:59;;;;;;;16.40;11.63;;;;;;;;;;5032627;28;20036;-64
2022/08/07 01:06:25;;;;;;;20.30;10.93;;;;;;;;;;5032221;28;20112;-64
2022/08/07 01:08:51;;;;;;;16.40;10.95;;;;;;;;;;5032904;28;20393;-64
2022/08/07 01:11:18;;;;;;;17.98;11.38;;;;;;;;;;5033570;28;20479;-64
2022/08/07 01:13:44;;;;;;;16.83;10.95;;;;;;;;;;5033897;28;20381;-64
2022/08/07 01:16:10;;;;;;;16.67;10.60;;;;;;;;;;5032235;28;20032;-64
2022/08/07 01:18:37;;;;;;;16.13;11.25;;;;;;;;;;5032946;28;20085;-64
2022/08/07 01:21:22;;;;;;;17.88;11.52;;;;;;;;;;5033662;28;20025;-64
2022/08/07 01:23:49;;;;;;;18.13;11.65;;;;;;;;;;5033693;28;20022;-64
2022/08/07 01:26:16;;;;;;;20.13;11.30;;;;;;;;;;5033712;28;20053;-63
2022/08/07 01:28:46;;;;;;;17.17;11.45;;;;;;;;;;5032771;28;20060;-63
2022/08/07 01:31:12;;;;;;;15.20;10.88;;;;;;;;;;5032104;28;20031;-63
2022/08/07 01:33:38;;;;;;;16.83;11.30;;;;;;;;;;5033371;28;20025;-63
2022/08/07 01:36:07;;;;;;;16.38;11.50;;;;;;;;;;5033211;28;20029;-64
2022/08/07 01:38:33;;;;;;;15.82;10.98;;;;;;;;;;5032488;28;20596;-64
2022/08/07 01:41:00;;;;;;;18.50;11.60;;;;;;;;;;5033353;28;20448;-64
2022/08/07 01:43:27;;;;;;;16.15;10.88;;;;;;;;;;5033226;28;20032;-64
2022/08/07 01:45:54;;;;;;;16.70;10.77;;;;;;;;;;5031866;28;20382;-65
2022/08/07 01:48:20;;;;;;;16.67;11.07;;;;;;;;;;5032304;28;20049;-64
2022/08/07 01:50:48;;;;;;;16.75;10.88;;;;;;;;;;5032778;28;20082;-63
2022/08/07 01:53:16;;;;;;;24.65;11.40;;;;;;;;;;5033376;28;20363;-63
2022/08/07 01:55:45;;;;;;;16.60;11.15;;;;;;;;;;5032923;28;20112;-64
2022/08/07 01:58:12;;;;;;;15.85;11.05;;;;;;;;;;5032087;28;20099;-64
2022/08/07 02:00:41;;;;;;;18.58;11.23;;;;;;;;;;5032833;28;20215;-64
2022/08/07 02:03:09;;;;;;;17.92;12.00;;;;;;;;;;5032956;28;20025;-63
2022/08/07 02:05:46;;;;;;;18.35;11.73;;;;;;;;;;5032528;28;20120;-64
2022/08/07 02:08:15;;;;;;;19.60;11.30;;;;;;;;;;5030782;28;20066;-64
2022/08/07 02:10:41;;;;;;;17.02;11.55;;;;;;;;;;5032718;28;20436;-64
2022/08/07 02:13:08;;;;;;;17.55;11.25;;;;;;;;;;5032700;28;20033;-64
2022/08/07 02:15:34;;;;;;;17.27;11.75;;;;;;;;;;5031241;28;20026;-64
2022/08/07 02:18:01;;;;;;;18.02;11.48;;;;;;;;;;5031613;28;20445;-63
2022/08/07 02:20:29;;;;;;;19.30;11.80;;;;;;;;;;5032674;28;20056;-64
2022/08/07 02:23:04;;;;;;;19.50;12.10;;;;;;;;;;5032700;28;20121;-64
2022/08/07 02:25:31;;;;;;;16.73;12.20;;;;;;;;;;5032396;28;20048;-64
2022/08/07 02:27:58;;;;;;;17.42;12.10;;;;;;;;;;5031675;28;20490;-64
2022/08/07 02:30:24;;;;;;;17.15;12.02;;;;;;;;;;5032377;28;20490;-64
2022/08/07 02:32:52;;;;;;;18.27;12.98;;;;;;;;;;5032472;28;20090;-64
2022/08/07 02:35:18;;;;;;;18.58;12.30;;;;;;;;;;5032566;28;20398;-64
2022/08/07 02:37:44;;;;;;;17.30;12.32;;;;;;;;;;5031545;28;20159;-63
2022/08/07 02:40:10;;;;;;;20.23;14.23;;;;;;;;;;5032400;28;20102;-64
2022/08/07 02:42:37;;;;;;;18.27;12.90;;;;;;;;;;5032266;28;20104;-64
2022/08/07 02:45:04;;;;;;;17.90;11.80;;;;;;;;;;5031006;28;20018;-64
2022/08/07 02:47:30;;;;;;;18.48;12.35;;;;;;;;;;5030188;28;20132;-64
2022/08/07 02:49:56;;;;;;;18.30;12.70;;;;;;;;;;5031993;28;20029;-65
2022/08/07 02:52:42;;;;;;;18.70;12.65;;;;;;;;;;5032307;28;20029;-63
2022/08/07 02:55:37;;;;;;;18.02;13.02;;;;;;;;;;5032330;28;20037;-63
2022/08/07 02:58:04;;;;;;;18.77;12.98;;;;;;;;;;5031002;28;20033;-63
2022/08/07 03:00:32;;;;;;;19.10;13.43;;;;;;;;;;5031055;28;20032;-64
2022/08/07 03:02:59;;;;;;;17.73;12.52;;;;;;;;;;5031638;28;20021;-63
2022/08/07 03:05:26;;;;;;;19.13;13.43;;;;;;;;;;5032123;28;20026;-63
2022/08/07 03:07:52;;;;;;;19.83;14.45;;;;;;;;;;5032222;28;20026;-63
2022/08/07 03:10:18;;;;;;;18.95;12.57;;;;;;;;;;5031196;28;20059;-62
2022/08/07 03:12:45;;;;;;;19.63;13.77;;;;;;;;;;5032459;28;20398;-63
2022/08/07 03:15:12;;;;;;;18.23;12.70;;;;;;;;;;5032009;28;20022;-63
2022/08/07 03:17:38;;;;;;;17.80;12.70;;;;;;;;;;5031137;28;20584;-63
2022/08/07 03:20:06;;;;;;;19.45;13.52;;;;;;;;;;5032001;28;20018;-63
2022/08/07 03:22:32;;;;;;;20.13;12.57;;;;;;;;;;5031751;28;20393;-62
2022/08/07 03:24:59;;;;;;;20.25;13.50;;;;;;;;;;5031376;28;20017;-64
2022/08/07 03:27:25;;;;;;;18.55;12.68;;;;;;;;;;5030951;28;20029;-63
2022/08/07 03:29:52;;;;;;;17.80;12.68;;;;;;;;;;5031619;28;20501;-63
2022/08/07 03:32:21;;;;;;;17.85;12.93;;;;;;;;;;5031777;28;20033;-63
2022/08/07 03:34:48;;;;;;;19.02;12.68;;;;;;;;;;5031525;28;20556;-63
2022/08/07 03:37:14;;;;;;;19.38;13.05;;;;;;;;;;5029874;28;20033;-63
2022/08/07 03:39:41;;;;;;;19.35;13.52;;;;;;;;;;5031817;28;20072;-64
2022/08/07 03:42:07;;;;;;;18.33;14.10;;;;;;;;;;5031930;28;20029;-64
2022/08/07 03:44:33;;;;;;;18.48;13.63;;;;;;;;;;5031738;28;20359;-63
2022/08/07 03:47:00;;;;;;;19.73;13.80;;;;;;;;;;5031627;28;20018;-64
2022/08/07 03:49:27;;;;;;;18.58;13.48;;;;;;;;;;5030808;28;20029;-63
2022/08/07 03:51:53;;;;;;;18.02;13.45;;;;;;;;;;5030137;28;20026;-63
2022/08/07 03:54:19;;;;;;;18.65;13.98;;;;;;;;;;5031903;28;20022;-63
2022/08/07 03:56:45;;;;;;;17.98;13.35;;;;;;;;;;5031700;28;20018;-63
2022/08/07 03:59:13;;;;;;;19.73;13.93;;;;;;;;;;5030829;28;20478;-63
2022/08/07 04:01:41;;;;;;;18.27;13.32;;;;;;;;;;5031749;28;20030;-64
2022/08/07 04:04:07;;;;;;;17.85;13.10;;;;;;;;;;5031446;28;20025;-63
2022/08/07 04:06:34;;;;;;;20.88;13.85;;;;;;;;;;5031477;28;20378;-64
2022/08/07 04:09:01;;;;;;;19.92;14.18;;;;;;;;;;5030396;28;20029;-63
2022/08/07 04:11:27;;;;;;;21.30;14.05;;;;;;;;;;5031387;28;20494;-64
2022/08/07 04:13:53;;;;;;;22.15;14.05;;;;;;;;;;5029994;28;20033;-63
2022/08/07 04:16:20;;;;;;;19.58;13.07;;;;;;;;;;5033542;28;20047;-64
2022/08/07 04:18:46;;;;;;;19.55;13.98;;;;;;;;;;5033924;28;20029;-64
2022/08/07 04:21:12;;;;;;;23.77;13.57;;;;;;;;;;5034826;28;20528;-64
2022/08/07 04:23:38;;;;;;;18.88;13.98;;;;;;;;;;5034971;28;20021;-64
2022/08/07 04:26:06;;;;;;;19.80;13.80;;;;;;;;;;5034781;28;20025;-64
2022/08/07 04:28:32;;;;;;;18.60;14.10;;;;;;;;;;5033988;28;20037;-64
2022/08/07 04:30:58;;;;;;;19.52;14.45;;;;;;;;;;5034599;28;20029;-64
2022/08/07 04:33:24;;;;;;;17.98;14.07;;;;;;;;;;5034379;28;20049;-64
2022/08/07 04:35:50;;;;;;;18.90;14.65;;;;;;;;;;5034687;28;20049;-63
2022/08/07 04:38:16;;;;;;;18.77;14.63;;;;;;;;;;5033900;28;20021;-64
2022/08/07 04:40:43;;;;;;;18.52;14.98;;;;;;;;;;5034811;28;20448;-64
2022/08/07 04:43:09;;;;;;;22.38;15.48;;;;;;;;;;5033590;28;20489;-64
2022/08/07 04:45:41;;;;;;;26.95;15.02;;;;;;;;;;5034463;28;20393;-64
2022/08/07 04:48:10;;;;;;;24.17;18.55;;;;;;;;;;5033928;28;20032;-64
2022/08/07 04:50:59;;;;;;;19.00;14.27;;;;;;;;;;5033128;28;20025;-64
2022/08/07 04:53:31;;;;;;;20.15;14.55;;;;;;;;;;5030035;28;20088;-63
2022/08/07 04:55:59;;;;;;;20.20;15.75;;;;;;;;;;5017961;28;20033;-63
2022/08/07 04:58:25;;;;;;;20.80;15.57;;;;;;;;;;5033145;28;20083;-62
2022/08/07 05:00:57;;;;;;;20.95;16.63;;;;;;;;;;5025052;28;20022;-64
2022/08/07 05:03:40;;;;;;;21.10;16.40;;;;;;;;;;5013071;28;20125;-63
2022/08/07 05:06:08;;;;;;;22.63;15.82;;;;;;;;;;5013867;28;20445;-63
2022/08/07 05:08:43;;;;;;;22.95;15.73;;;;;;;;;;5014098;28;20026;-63
2022/08/07 05:11:24;;;;;;;19.15;15.43;;;;;;;;;;5033790;28;20033;-63
2022/08/07 05:13:57;;;;;;;19.83;16.30;;;;;;;;;;5033795;28;20548;-63
2022/08/07 05:16:23;;;;;;;21.23;16.10;;;;;;;;;;5032652;28;20463;-63
2022/08/07 05:18:52;;;;;;;21.48;15.95;;;;;;;;;;5031539;28;20029;-63
2022/08/07 05:21:20;;;;;;;32.75;24.63;;;;;;;;;;5033472;28;20049;-62
2022/08/07 05:23:52;;;;;;;21.17;15.73;;;;;;;;;;5033856;28;20438;-60
2022/08/07 05:26:20;;;;;;;23.90;18.77;;;;;;;;;;5024051;28;20026;-63
2022/08/07 05:28:47;;;;;;;20.08;15.48;;;;;;;;;;5011805;28;20033;-62
2022/08/07 05:31:15;;;;;;;20.42;15.18;;;;;;;;;;5013776;28;20034;-63
2022/08/07 05:33:42;;;;;;;20.30;14.07;;;;;;;;;;5013752;28;20169;-63
2022/08/07 05:36:09;;;;;;;20.08;14.70;;;;;;;;;;5013971;28;20390;-63
2022/08/07 05:38:36;;;;;;;18.83;13.82;;;;;;;;;;5012869;28;20099;-63
2022/08/07 05:41:02;;;;;;;19.70;14.55;;;;;;;;;;5013465;28;20022;-63
2022/08/07 05:43:29;;;;;;;23.35;17.42;;;;;;;;;;5013434;28;20049;-63
2022/08/07 05:45:56;;;;;;;21.52;16.27;;;;;;;;;;5013484;28;20536;-63
2022/08/07 05:48:23;;;;;;;19.80;14.07;;;;;;;;;;5012791;28;20386;-63
2022/08/07 05:50:49;;;;;;;18.48;13.27;;;;;;;;;;5013843;28;20029;-63
2022/08/07 05:53:15;;;;;;;21.05;13.65;;;;;;;;;;5024396;28;20032;-63
2022/08/07 05:55:42;;;;;;;17.10;13.23;;;;;;;;;;5032886;28;20025;-63
2022/08/07 05:58:09;;;;;;;18.48;14.10;;;;;;;;;;5032093;28;20037;-63
2022/08/07 06:00:36;;;;;;;17.73;13.63;;;;;;;;;;5033014;28;20022;-63
2022/08/07 06:03:05;;;;;;;17.67;13.20;;;;;;;;;;5032641;28;20026;-63
2022/08/07 06:05:31;;;;;;;;;;;;;;;;;;5032953;28;20494;-63
2022/08/07 06:08:00;;;;;;;25.15;19.42;;;;;;;;;;5030648;28;19909;-64
2022/08/07 06:10:27;;;;;;;19.38;15.45;;;;;;;;;;5032634;28;20049;-63
2022/08/07 06:12:53;;;;;;;18.88;14.10;;;;;;;;;;5031387;28;20029;-64
2022/08/07 06:15:20;;;;;;;16.95;13.20;;;;;;;;;;5031191;28;20033;-64
2022/08/07 06:17:46;;;;;;;24.33;15.85;;;;;;;;;;5032020;28;20025;-63
2022/08/07 06:20:13;;;;;;;53.28;44.60;;;;;;;;;;5032595;28;20052;-63
2022/08/07 06:22:42;;;;;;;24.35;18.75;;;;;;;;;;5031370;28;20482;-64
2022/08/07 06:25:08;;;;;;;19.77;15.70;;;;;;;;;;5032305;28;20025;-64
2022/08/07 06:27:34;;;;;;;20.42;15.07;;;;;;;;;;5030435;28;20390;-63
2022/08/07 06:30:00;;;;;;;16.92;13.43;;;;;;;;;;5032468;28;20026;-63
2022/08/07 06:32:26;;;;;;;21.50;15.10;;;;;;;;;;5032713;28;20900;-63
2022/08/07 06:34:52;;;;;;;17.45;13.48;;;;;;;;;;5032409;28;20456;-64
2022/08/07 06:37:18;;;;;;;19.17;14.60;;;;;;;;;;5031218;28;20037;-62
2022/08/07 06:39:44;;;;;;;17.95;13.45;;;;;;;;;;5031839;28;20568;-63
2022/08/07 06:42:19;;;;;;;16.98;13.48;;;;;;;;;;5032323;28;20109;-63
2022/08/07 06:44:49;;;;;;;24.60;18.75;;;;;;;;;;5032022;28;20125;-63
2022/08/07 06:47:15;;;;;;;21.70;15.75;;;;;;;;;;5030145;28;20022;-62
2022/08/07 06:49:41;;;;;;;19.85;15.52;;;;;;;;;;5032086;28;20018;-63
2022/08/07 06:52:09;;;;;;;19.90;13.88;;;;;;;;;;5031979;28;20033;-63
2022/08/07 06:54:36;;;;;;;18.88;14.85;;;;;;;;;;5031832;28;20021;-64
2022/08/07 06:57:02;;;;;;;20.63;16.20;;;;;;;;;;5031826;28;20098;-62
2022/08/07 06:59:33;;;;;;;25.60;14.98;;;;;;;;;;5031400;28;20022;-63
2022/08/07 07:02:00;;;;;;;19.25;14.45;;;;;;;;;;5032221;28;20026;-63
2022/08/07 07:04:26;;;;;;;16.88;13.05;;;;;;;;;;5032059;28;20026;-64
2022/08/07 07:06:53;;;;;;;29.33;23.23;;;;;;;;;;5031899;28;20037;-64
2022/08/07 07:09:20;;;;;;;20.70;15.98;;;;;;;;;;5031322;28;20029;-63
2022/08/07 07:12:04;;;;;;;18.90;14.25;;;;;;;;;;5031840;28;20029;-63
2022/08/07 07:14:33;;;;;;;18.00;12.90;;;;;;;;;;5032037;28;20029;-63
2022/08/07 07:17:00;;;;;;;21.00;13.65;;;;;;;;;;5032014;28;20025;-62
2022/08/07 07:19:31;;;;;;;18.42;13.00;;;;;;;;;;5031490;28;20033;-62
2022/08/07 07:21:58;;;;;;;18.63;12.73;;;;;;;;;;5031903;28;20018;-62
2022/08/07 07:24:24;;;;;;;19.73;13.10;;;;;;;;;;5031993;28;20017;-62
2022/08/07 07:26:52;;;;;;;16.95;12.55;;;;;;;;;;5031823;28;20017;-62
2022/08/07 07:29:21;;;;;;;19.23;12.93;;;;;;;;;;5031062;28;20032;-63
2022/08/07 07:31:47;;;;;;;18.17;13.35;;;;;;;;;;5032020;28;20030;-62
2022/08/07 07:34:16;;;;;;;19.50;13.10;;;;;;;;;;5031691;28;20025;-63
2022/08/07 07:36:43;;;;;;;17.48;13.05;;;;;;;;;;5031776;28;20056;-62
2022/08/07 07:39:10;;;;;;;17.00;12.95;;;;;;;;;;5030912;28;20370;-63
2022/08/07 07:41:37;;;;;;;16.73;12.55;;;;;;;;;;5031680;28;20112;-61
2022/08/07 07:44:04;;;;;;;18.48;13.32;;;;;;;;;;5032086;28;20021;-60
2022/08/07 07:46:31;;;;;;;16.00;12.45;;;;;;;;;;5031878;28;20021;-62
2022/08/07 07:48:58;;;;;;;17.25;13.05;;;;;;;;;;5031036;28;20105;-63
2022/08/07 07:51:24;;;;;;;18.25;12.70;;;;;;;;;;5035153;28;20030;-62
2022/08/07 07:53:50;;;;;;;15.90;12.48;;;;;;;;;;5034973;28;20445;-63
2022/08/07 07:56:16;;;;;;;16.67;12.52;;;;;;;;;;5035086;28;20031;-63
2022/08/07 07:58:43;;;;;;;15.52;12.30;;;;;;;;;;5034309;28;20031;-64
2022/08/07 08:01:10;;;;;;;23.10;19.17;;;;;;;;;;5035046;28;20163;-66
2022/08/07 08:03:38;;;;;;;18.38;14.02;;;;;;;;;;5034895;28;20025;-61
2022/08/07 08:06:04;;;;;;;18.15;14.50;;;;;;;;;;5048702;22;20060;-61
2022/08/07 08:08:31;;;;;;;17.88;12.85;;;;;;;;;;5027081;28;20044;-60
2022/08/07 08:10:58;;;;;;;28.52;16.98;;;;;;;;;;5016500;28;20034;-60
2022/08/07 08:13:26;;;;;;;18.27;12.32;;;;;;;;;;5025667;28;20025;-60
2022/08/07 08:15:52;;;;;;;15.65;12.30;;;;;;;;;;5025475;28;20030;-62
2022/08/07 08:18:19;;;;;;;15.70;12.40;;;;;;;;;;5019303;28;20030;-62
2022/08/07 08:20:46;;;;;;;16.73;12.63;;;;;;;;;;5015945;28;20022;-61
2022/08/07 08:28:54;;;;;;;16.30;13.65;;;;;;;;;;5006235;28;20030;-60
2022/08/07 08:31:22;;;;;;;17.15;13.10;;;;;;;;;;5015669;28;20482;-61
2022/08/07 08:33:50;;;;;;;16.25;12.93;;;;;;;;;;5015526;28;20474;-62
2022/08/07 08:36:16;;;;;;;;;;;;;;;;;;5015694;28;20034;-61
2022/08/07 08:38:44;;;;;;;16.05;13.18;;;;;;;;;;5014489;28;20370;-60
2022/08/07 08:41:13;;;;;;;16.27;13.32;;;;;;;;;;5015378;28;20030;-61
2022/08/07 08:43:49;;;;;;;17.08;13.60;;;;;;;;;;5015131;28;20018;-63
2022/08/07 08:46:36;;;;;;;17.23;12.90;;;;;;;;;;5015542;28;20034;-61
2022/08/07 08:49:14;;;;;;;18.10;13.30;;;;;;;;;;5009072;28;20065;-58
2022/08/07 08:51:50;;;;;;;17.40;13.30;;;;;;;;;;5015654;28;20026;-60
2022/08/07 08:54:21;;;;;;;16.65;13.05;;;;;;;;;;5027201;28;20429;-64
2022/08/07 08:56:49;;;;;;;16.58;13.38;;;;;;;;;;5033153;28;20068;-62
2022/08/07 08:59:15;;;;;;;15.70;12.67;;;;;;;;;;5032516;28;20029;-62
2022/08/07 09:01:45;;;;;;;16.27;13.00;;;;;;;;;;5032225;28;20756;-63
2022/08/07 09:04:15;;;;;;;15.80;13.05;;;;;;;;;;5031453;28;20021;-63
2022/08/07 09:06:44;;;;;;;15.50;13.00;;;;;;;;;;5031076;28;20116;-64
2022/08/07 09:09:40;;;;;;;15.98;13.13;;;;;;;;;;5032873;28;20067;-61
2022/08/07 09:12:06;;;;;;;15.85;12.70;;;;;;;;;;5029445;28;20064;-62
2022/08/07 09:14:50;;;;;;;16.02;12.90;;;;;;;;;;5034760;28;20029;-63
2022/08/07 09:17:19;;;;;;;16.30;12.68;;;;;;;;;;5032537;28;20569;-60
2022/08/07 09:20:01;;;;;;;16.23;13.15;;;;;;;;;;5034624;28;20021;-58
2022/08/07 09:22:45;;;;;;;16.30;12.25;;;;;;;;;;5034748;28;20071;-62
2022/08/07 09:25:14;;;;;;;15.98;12.35;;;;;;;;;;5034699;28;20029;-63
2022/08/07 09:27:40;;;;;;;15.88;12.05;;;;;;;;;;5033742;28;20029;-62
2022/08/07 09:30:08;;;;;;;16.48;12.73;;;;;;;;;;5034323;28;20025;-61
2022/08/07 09:32:36;;;;;;;16.52;12.43;;;;;;;;;;5033880;28;20026;-61
2022/08/07 09:35:04;;;;;;;17.13;12.55;;;;;;;;;;5033923;28;20474;-61
2022/08/07 09:37:41;;;;;;;16.35;12.95;;;;;;;;;;5032958;28;20108;-59
2022/08/07 09:40:11;;;;;;;16.02;12.90;;;;;;;;;;5033702;28;20030;-63
2022/08/07 09:42:39;;;;;;;18.65;12.75;;;;;;;;;;5033895;28;20363;-62
2022/08/07 09:45:10;;;;;;;15.95;12.43;;;;;;;;;;5034309;28;20026;-63
2022/08/07 09:47:39;;;;;;;18.17;13.23;;;;;;;;;;5032843;28;20034;-62
2022/08/07 09:50:05;;;;;;;16.65;13.07;;;;;;;;;;5034133;28;20091;-61
2022/08/07 09:52:40;;;;;;;17.40;12.55;;;;;;;;;;5034083;28;20025;-62
2022/08/07 09:55:09;;;;;;;16.38;13.07;;;;;;;;;;5013127;28;20378;-63
2022/08/07 09:57:49;;;;;;;21.33;17.85;;;;;;;;;;5013095;28;20026;-62
2022/08/07 10:00:16;;;;;;;16.30;12.70;;;;;;;;;;5013726;28;20052;-61
2022/08/07 10:02:58;;;;;;;17.70;13.30;;;;;;;;;;5014030;28;20044;-62
2022/08/07 10:05:36;;;;;;;16.23;13.23;;;;;;;;;;5014004;28;20100;-62
2022/08/07 10:08:11;;;;;;;21.00;17.75;;;;;;;;;;5016099;28;20030;-63
2022/08/07 10:10:40;;;;;;;18.52;15.73;;;;;;;;;;5015702;28;20034;-63
2022/08/07 10:13:14;;;;;;;16.60;13.00;;;;;;;;;;5014303;28;20009;-62
2022/08/07 10:15:43;;;;;;;16.75;12.98;;;;;;;;;;5014038;28;20026;-61
2022/08/07 10:18:15;;;;;;;17.35;14.55;;;;;;;;;;5013236;28;20550;-60
2022/08/07 10:20:59;;;;;;;16.25;12.70;;;;;;;;;;5013506;28;20033;-59
2022/08/07 10:23:44;;;;;;;15.98;13.07;;;;;;;;;;5013941;28;20018;-61
2022/08/07 10:26:32;;;;;;;18.52;13.73;;;;;;;;;;5013796;28;20022;-63
2022/08/07 10:28:58;;;;;;;16.92;12.73;;;;;;;;;;5012063;28;20033;-62
2022/08/07 10:31:43;;;;;;;15.77;12.50;;;;;;;;;;5013616;28;20236;-62
2022/08/07 10:34:12;;;;;;;16.48;12.60;;;;;;;;;;5013355;28;20030;-59
2022/08/07 10:36:47;;;;;;;16.25;12.80;;;;;;;;;;5013386;28;20486;-62
2022/08/07 10:39:28;;;;;;;15.82;13.30;;;;;;;;;;5012382;28;20475;-62
2022/08/07 10:41:57;;;;;;;16.98;12.98;;;;;;;;;;5013091;28;20026;-61
2022/08/07 10:44:23;;;;;;;17.25;13.00;;;;;;;;;;5013381;28;20068;-63
2022/08/07 10:46:54;;;;;;;16.83;13.07;;;;;;;;;;5012917;28;20018;-63
2022/08/07 10:49:19;;;;;;;15.38;12.73;;;;;;;;;;5012732;28;20022;-58
2022/08/07 10:51:46;;;;;;;15.77;13.10;;;;;;;;;;5013057;28;20041;-63
2022/08/07 10:54:15;;;;;;;17.85;13.20;;;;;;;;;;5014675;28;20026;-59
2022/08/07 10:56:59;;;;;;;15.52;12.55;;;;;;;;;;5021296;28;20030;-61
2022/08/07 10:59:47;;;;;;;16.10;12.80;;;;;;;;;;5022754;28;20021;-60
2022/08/07 11:02:14;;;;;;;18.83;13.30;;;;;;;;;;5020818;28;20075;-61
2022/08/07 11:05:09;;;;;;;15.40;13.10;;;;;;;;;;5012994;28;20028;-50
2022/08/07 11:07:50;;;;;;;15.98;13.20;;;;;;;;;;5011763;28;20649;-55
2022/08/07 11:10:23;;;;;;;16.00;13.05;;;;;;;;;;5012687;28;20140;-52
2022/08/07 11:12:58;;;;;;;15.90;13.38;;;;;;;;;;5012798;28;20030;-56
2022/08/07 11:15:27;;;;;;;18.55;14.60;;;;;;;;;;5011238;28;20383;-56
2022/08/07 11:17:56;;;;;;;17.30;13.45;;;;;;;;;;5011815;28;20076;-52
2022/08/07 11:20:24;;;;;;;17.17;14.25;;;;;;;;;;5012546;28;20022;-51
2022/08/07 11:23:02;;;;;;;16.73;13.32;;;;;;;;;;5011701;28;20026;-54
2022/08/07 11:25:35;;;;;;;15.43;13.15;;;;;;;;;;5014156;28;20483;-59
2022/08/07 11:28:01;;;;;;;16.48;13.13;;;;;;;;;;4674926;28;10001133;-56
2022/08/07 11:30:31;;;;;;;15.85;13.20;;;;;;;;;;5020636;28;20230;-55
2022/08/07 11:33:20;;;;;;;15.30;13.10;;;;;;;;;;5022561;28;20076;-57
2022/08/07 11:35:54;;;;;;;16.90;13.50;;;;;;;;;;5031374;28;20409;-52
2022/08/07 11:38:29;;;;;;;16.15;13.45;;;;;;;;;;5021107;28;20061;-57
2022/08/07 11:40:55;;;;;;;17.80;13.77;;;;;;;;;;5023405;28;20377;-52
2022/08/07 11:43:28;;;;;;;17.10;13.27;;;;;;;;;;5032207;28;20018;-57
2022/08/07 11:46:06;;;;;;;16.00;13.57;;;;;;;;;;5030411;28;20028;-54
2022/08/07 11:48:32;;;;;;;;;;;;;;;;;;5011323;28;20496;-52
2022/08/07 11:51:16;;;;;;;18.85;14.38;;;;;;;;;;5012729;28;19909;-52
2022/08/07 11:53:42;;;;;;;17.75;14.07;;;;;;;;;;5021720;28;20041;-55
2022/08/07 11:56:27;;;;;;;18.38;13.90;;;;;;;;;;5032586;28;20029;-57
2022/08/07 11:59:12;;;;;;;17.42;14.02;;;;;;;;;;5031820;28;20112;-59
2022/08/07 12:01:56;;;;;;;16.15;13.70;;;;;;;;;;5032372;28;20013;-52
2022/08/07 12:04:31;;;;;;;17.70;14.52;;;;;;;;;;5018514;28;20022;-54
2022/08/07 12:07:02;;;;;;;18.27;14.70;;;;;;;;;;5012096;28;20041;-54
2022/08/07 12:09:34;;;;;;;16.60;14.50;;;;;;;;;;4680626;28;9999680;-57
2022/08/07 12:12:00;;;;;;;16.15;13.88;;;;;;;;;;5032090;28;20025;-59
2022/08/07 12:14:29;;;;;;;16.83;13.70;;;;;;;;;;5032144;28;20025;-60
2022/08/07 12:17:00;;;;;;;16.02;13.90;;;;;;;;;;5034507;28;20029;-60
2022/08/07 12:19:35;;;;;;;17.08;14.57;;;;;;;;;;5032677;28;20018;-59
2022/08/07 12:22:07;;;;;;;16.90;14.30;;;;;;;;;;5031542;28;20029;-60
2022/08/07 12:25:51;;;;;;;15.82;14.00;;;;;;;;;;5030319;28;20025;-59
2022/08/07 12:27:30;;;;;;;17.80;14.07;;;;;;;;;;5030846;28;20116;-56
2022/08/07 12:30:00;;;;;;;17.63;13.80;;;;;;;;;;5018669;28;20034;-58
2022/08/07 12:32:34;;;;;;;15.93;13.18;;;;;;;;;;5032496;28;20095;-64
2022/08/07 12:35:03;;;;;;;16.23;13.70;;;;;;;;;;5031291;28;20140;-62
2022/08/07 12:37:29;;;;;;;16.88;13.68;;;;;;;;;;5024428;28;20080;-60
2022/08/07 12:39:57;;;;;;;15.98;13.30;;;;;;;;;;5011926;28;20037;-62
2022/08/07 12:42:25;;;;;;;16.75;13.77;;;;;;;;;;5011674;28;20029;-63
2022/08/07 12:44:52;;;;;;;16.58;13.43;;;;;;;;;;5010871;28;20026;-62
2022/08/07 12:47:32;;;;;;;16.05;13.52;;;;;;;;;;5010548;28;20029;-61
2022/08/07 12:50:04;;;;;;;16.33;13.65;;;;;;;;;;5010020;28;20605;-62
2022/08/07 12:52:49;;;;;;;17.10;13.77;;;;;;;;;;5011246;28;20084;-62
2022/08/07 12:55:23;;;;;;;17.05;13.70;;;;;;;;;;5011205;28;20034;-62
2022/08/07 12:57:51;;;;;;;15.48;13.07;;;;;;;;;;5010428;28;20059;-62
2022/08/07 13:00:17;;;;;;;16.10;13.48;;;;;;;;;;5009769;28;20018;-62
2022/08/07 13:02:55;;;;;;;17.48;15.18;;;;;;;;;;5014338;28;20052;-61
2022/08/07 13:05:20;;;;;;;;;;;;;;;;;;5020833;28;20033;-59
2022/08/07 13:07:46;;;;;;;16.65;14.27;;;;;;;;;;5016876;28;19913;-61
2022/08/07 13:10:31;;;;;;;16.15;12.80;;;;;;;;;;5031488;28;20095;-61
2022/08/07 13:13:01;;;;;;;16.10;13.82;;;;;;;;;;5031564;28;20109;-62
2022/08/07 13:15:42;;;;;;;20.40;18.20;;;;;;;;;;5031407;28;20034;-62
2022/08/07 13:18:11;;;;;;;17.05;13.48;;;;;;;;;;5030177;28;20044;-62
2022/08/07 13:20:49;;;;;;;16.33;13.10;;;;;;;;;;5030470;28;20482;-61
2022/08/07 13:23:15;;;;;;;;;;;;;;;;;;5031881;28;20029;-62
2022/08/07 13:25:54;;;;;;;17.75;11.85;;;;;;;;;;5029548;28;20532;-62
2022/08/07 13:28:27;;;;;;;14.32;9.20;;;;;;;;;;5019144;28;20026;-57
2022/08/07 13:31:04;;;;;;;14.43;9.23;;;;;;;;;;5022006;28;20025;-64
2022/08/07 13:33:45;;;;;;;14.63;9.32;;;;;;;;;;5019462;28;20101;-59
2022/08/07 13:36:22;;;;;;;15.30;9.93;;;;;;;;;;5019557;28;20156;-58
2022/08/07 13:39:10;;;;;;;17.80;9.90;;;;;;;;;;5025647;28;20033;-61
2022/08/07 13:41:44;;;;;;;17.08;10.02;;;;;;;;;;5030764;28;20026;-57
2022/08/07 13:44:11;;;;;;;15.75;10.10;;;;;;;;;;5032999;28;20103;-56
2022/08/07 13:46:39;;;;;;;17.00;12.40;;;;;;;;;;5033013;28;20454;-51
2022/08/07 13:49:05;;;;;;;15.50;10.20;;;;;;;;;;5032762;28;20021;-52
2022/08/07 13:51:33;;;;;;;15.30;9.90;;;;;;;;;;5033512;28;20474;-51
2022/08/07 13:54:07;;;;;;;15.77;9.68;;;;;;;;;;5033024;28;20020;-52
2022/08/07 13:56:34;;;;;;;15.35;9.50;;;;;;;;;;5033320;28;20041;-53
2022/08/07 13:59:01;;;;;;;16.52;9.80;;;;;;;;;;5030779;28;20021;-62
2022/08/07 14:01:29;;;;;;;15.55;10.20;;;;;;;;;;5033391;28;20022;-63
2022/08/07 14:03:56;;;;;;;15.45;10.30;;;;;;;;;;5033721;28;20433;-61
2022/08/07 14:06:23;;;;;;;14.80;9.88;;;;;;;;;;5048017;22;21448;-58
2022/08/07 14:08:51;;;;;;;14.73;9.85;;;;;;;;;;5031348;28;20529;-61
2022/08/07 14:11:18;;;;;;;15.88;10.40;;;;;;;;;;5032206;28;20033;-56
2022/08/07 14:13:54;;;;;;;14.98;9.80;;;;;;;;;;5032120;28;20042;-60
2022/08/07 14:16:23;;;;;;;15.15;10.10;;;;;;;;;;5026010;28;20022;-60
2022/08/07 14:18:50;;;;;;;15.15;9.63;;;;;;;;;;5019403;28;20542;-62
2022/08/07 14:21:28;;;;;;;15.80;9.80;;;;;;;;;;5021879;28;20426;-60
2022/08/07 14:23:57;;;;;;;14.80;10.20;;;;;;;;;;5018885;28;20021;-60
2022/08/07 14:26:25;;;;;;;14.77;9.90;;;;;;;;;;5020801;28;20489;-61
2022/08/07 14:28:52;;;;;;;16.83;10.70;;;;;;;;;;5021522;28;20022;-61
2022/08/07 14:31:22;;;;;;;14.60;10.40;;;;;;;;;;5021476;28;20036;-60
2022/08/07 14:33:49;;;;;;;14.70;10.30;;;;;;;;;;5028882;28;20124;-57
2022/08/07 14:36:15;;;;;;;14.07;9.50;;;;;;;;;;5031637;28;20021;-59
2022/08/07 14:38:43;;;;;;;15.73;10.20;;;;;;;;;;5015594;28;20030;-69